sensor_id;sensor_type;location;lat;lon;timestamp;pressure;altitude;pressure_sealevel;temperature;humidity
79368;BME280;68834;53.152;17.962;2023-05-17T00:01:41;101177.86;;;11.79;67.55
79368;BME280;68834;53.152;17.962;2023-05-17T00:04:08;101179.14;;;11.75;67.44
79368;BME280;68834;53.152;17.962;2023-05-17T00:06:35;101179.72;;;11.73;67.53
79368;BME280;68834;53.152;17.962;2023-05-17T00:09:01;101175.11;;;11.68;67.65
79368;BME280;68834;53.152;17.962;2023-05-17T00:11:28;101172.95;;;11.63;67.51
79368;BME280;68834;53.152;17.962;2023-05-17T00:13:55;101169.86;;;11.60;67.89
79368;BME280;68834;53.152;17.962;2023-05-17T00:16:21;101173.92;;;11.59;67.73
79368;BME280;68834;53.152;17.962;2023-05-17T00:18:48;101172.36;;;11.58;67.86
79368;BME280;68834;53.152;17.962;2023-05-17T00:21:14;101170.77;;;11.58;67.83
79368;BME280;68834;53.152;17.962;2023-05-17T00:23:41;101168.34;;;11.58;68.00
79368;BME280;68834;53.152;17.962;2023-05-17T00:26:07;101163.88;;;11.54;67.86
79368;BME280;68834;53.152;17.962;2023-05-17T00:28:34;101162.48;;;11.54;68.04
79368;BME280;68834;53.152;17.962;2023-05-17T00:31:00;101160.73;;;11.53;67.77
79368;BME280;68834;53.152;17.962;2023-05-17T00:33:29;101163.94;;;11.51;67.98
79368;BME280;68834;53.152;17.962;2023-05-17T00:35:56;101161.44;;;11.45;68.34
79368;BME280;68834;53.152;17.962;2023-05-17T00:38:23;101159.23;;;11.42;68.03
79368;BME280;68834;53.152;17.962;2023-05-17T00:40:49;101164.81;;;11.43;68.11
79368;BME280;68834;53.152;17.962;2023-05-17T00:43:16;101160.65;;;11.41;67.96
79368;BME280;68834;53.152;17.962;2023-05-17T00:45:43;101161.40;;;11.39;68.00
79368;BME280;68834;53.152;17.962;2023-05-17T00:48:10;101165.30;;;11.37;68.20
79368;BME280;68834;53.152;17.962;2023-05-17T00:50:36;101170.09;;;11.34;68.12
79368;BME280;68834;53.152;17.962;2023-05-17T00:53:03;101167.00;;;11.31;68.35
79368;BME280;68834;53.152;17.962;2023-05-17T00:55:30;101167.40;;;11.28;68.36
79368;BME280;68834;53.152;17.962;2023-05-17T00:57:57;101169.05;;;11.25;68.59
79368;BME280;68834;53.152;17.962;2023-05-17T01:00:24;101173.71;;;11.19;68.42
79368;BME280;68834;53.152;17.962;2023-05-17T01:02:50;101175.20;;;11.16;68.75
79368;BME280;68834;53.152;17.962;2023-05-17T01:05:17;101176.84;;;11.13;68.34
79368;BME280;68834;53.152;17.962;2023-05-17T01:07:44;101168.33;;;11.09;68.62
79368;BME280;68834;53.152;17.962;2023-05-17T01:10:10;101166.39;;;11.11;68.67
79368;BME280;68834;53.152;17.962;2023-05-17T01:15:27;101167.80;;;11.09;69.09
79368;BME280;68834;53.152;17.962;2023-05-17T01:35:37;101172.52;;;11.42;68.41
79368;BME280;68834;53.152;17.962;2023-05-17T01:38:03;101164.96;;;11.44;68.09
79368;BME280;68834;53.152;17.962;2023-05-17T01:40:33;101161.86;;;11.33;68.14
79368;BME280;68834;53.152;17.962;2023-05-17T01:43:09;101166.48;;;11.22;68.34
79368;BME280;68834;53.152;17.962;2023-05-17T01:45:46;101171.61;;;11.12;68.64
79368;BME280;68834;53.152;17.962;2023-05-17T01:48:27;101175.46;;;11.02;68.70
79368;BME280;68834;53.152;17.962;2023-05-17T01:50:58;101175.77;;;10.95;68.86
79368;BME280;68834;53.152;17.962;2023-05-17T01:53:38;101176.10;;;10.88;68.82
79368;BME280;68834;53.152;17.962;2023-05-17T01:56:15;101183.05;;;10.80;69.01
79368;BME280;68834;53.152;17.962;2023-05-17T01:58:45;101183.95;;;10.71;69.36
79368;BME280;68834;53.152;17.962;2023-05-17T02:01:17;101178.14;;;10.63;69.37
79368;BME280;68834;53.152;17.962;2023-05-17T02:03:48;101178.05;;;10.57;69.51
79368;BME280;68834;53.152;17.962;2023-05-17T02:06:16;101176.94;;;10.52;69.66
79368;BME280;68834;53.152;17.962;2023-05-17T02:08:42;101169.70;;;10.46;69.75
79368;BME280;68834;53.152;17.962;2023-05-17T02:11:09;101173.23;;;10.43;69.78
79368;BME280;68834;53.152;17.962;2023-05-17T02:13:36;101173.46;;;10.41;69.75
79368;BME280;68834;53.152;17.962;2023-05-17T02:16:03;101179.39;;;10.42;69.79
79368;BME280;68834;53.152;17.962;2023-05-17T02:18:29;101182.52;;;10.42;69.97
79368;BME280;68834;53.152;17.962;2023-05-17T02:20:57;101183.10;;;10.39;69.90
79368;BME280;68834;53.152;17.962;2023-05-17T02:23:24;101179.80;;;10.38;69.88
79368;BME280;68834;53.152;17.962;2023-05-17T02:25:52;101182.45;;;10.36;69.96
79368;BME280;68834;53.152;17.962;2023-05-17T02:28:19;101184.10;;;10.31;70.07
79368;BME280;68834;53.152;17.962;2023-05-17T02:30:45;101186.45;;;10.27;70.13
79368;BME280;68834;53.152;17.962;2023-05-17T02:33:13;101189.61;;;10.26;70.16
79368;BME280;68834;53.152;17.962;2023-05-17T02:35:39;101191.02;;;10.24;69.95
79368;BME280;68834;53.152;17.962;2023-05-17T02:38:06;101190.86;;;10.22;70.12
79368;BME280;68834;53.152;17.962;2023-05-17T02:40:33;101188.99;;;10.19;70.14
79368;BME280;68834;53.152;17.962;2023-05-17T02:43:02;101191.47;;;10.17;70.05
79368;BME280;68834;53.152;17.962;2023-05-17T02:45:29;101196.39;;;10.15;70.09
79368;BME280;68834;53.152;17.962;2023-05-17T02:47:55;101203.23;;;10.13;70.02
79368;BME280;68834;53.152;17.962;2023-05-17T02:50:22;101195.06;;;10.11;70.04
79368;BME280;68834;53.152;17.962;2023-05-17T02:52:48;101192.63;;;10.09;70.08
79368;BME280;68834;53.152;17.962;2023-05-17T02:55:15;101192.86;;;10.07;69.89
79368;BME280;68834;53.152;17.962;2023-05-17T02:57:42;101195.88;;;10.03;69.87
79368;BME280;68834;53.152;17.962;2023-05-17T03:00:09;101203.05;;;10.02;69.92
79368;BME280;68834;53.152;17.962;2023-05-17T03:02:36;101205.81;;;10.04;69.61
79368;BME280;68834;53.152;17.962;2023-05-17T03:05:05;101210.34;;;10.05;69.39
79368;BME280;68834;53.152;17.962;2023-05-17T03:07:31;101214.38;;;10.03;69.30
79368;BME280;68834;53.152;17.962;2023-05-17T03:09:58;101213.89;;;10.01;69.27
79368;BME280;68834;53.152;17.962;2023-05-17T03:12:27;101218.95;;;10.02;69.28
79368;BME280;68834;53.152;17.962;2023-05-17T03:14:53;101223.86;;;10.01;69.25
79368;BME280;68834;53.152;17.962;2023-05-17T03:17:20;101241.73;;;9.98;69.10
79368;BME280;68834;53.152;17.962;2023-05-17T03:19:47;101249.13;;;9.93;69.17
79368;BME280;68834;53.152;17.962;2023-05-17T03:22:14;101239.77;;;9.87;69.11
79368;BME280;68834;53.152;17.962;2023-05-17T03:24:40;101223.40;;;9.84;69.20
79368;BME280;68834;53.152;17.962;2023-05-17T03:27:07;101220.80;;;9.82;68.93
79368;BME280;68834;53.152;17.962;2023-05-17T03:29:35;101237.77;;;9.80;68.85
79368;BME280;68834;53.152;17.962;2023-05-17T03:32:01;101247.20;;;9.80;68.71
79368;BME280;68834;53.152;17.962;2023-05-17T03:34:28;101238.98;;;9.81;68.66
79368;BME280;68834;53.152;17.962;2023-05-17T03:36:55;101237.55;;;9.83;68.57
79368;BME280;68834;53.152;17.962;2023-05-17T03:39:22;101243.66;;;9.83;68.20
79368;BME280;68834;53.152;17.962;2023-05-17T03:41:49;101246.12;;;9.82;68.14
79368;BME280;68834;53.152;17.962;2023-05-17T03:44:16;101250.63;;;9.84;68.16
79368;BME280;68834;53.152;17.962;2023-05-17T03:46:43;101251.83;;;9.87;68.20
79368;BME280;68834;53.152;17.962;2023-05-17T03:49:09;101253.05;;;9.87;67.88
79368;BME280;68834;53.152;17.962;2023-05-17T03:51:37;101253.75;;;9.86;67.77
79368;BME280;68834;53.152;17.962;2023-05-17T03:54:04;101257.61;;;9.85;67.44
79368;BME280;68834;53.152;17.962;2023-05-17T03:56:30;101255.70;;;9.83;67.65
79368;BME280;68834;53.152;17.962;2023-05-17T03:58:57;101251.88;;;9.82;67.61
79368;BME280;68834;53.152;17.962;2023-05-17T04:01:24;101251.75;;;9.80;67.74
79368;BME280;68834;53.152;17.962;2023-05-17T04:03:51;101256.64;;;9.79;67.66
79368;BME280;68834;53.152;17.962;2023-05-17T04:06:18;101260.13;;;9.79;67.18
79368;BME280;68834;53.152;17.962;2023-05-17T04:08:45;101262.56;;;9.81;67.05
79368;BME280;68834;53.152;17.962;2023-05-17T04:11:12;101263.39;;;9.84;67.07
79368;BME280;68834;53.152;17.962;2023-05-17T04:13:39;101265.38;;;9.91;66.81
79368;BME280;68834;53.152;17.962;2023-05-17T04:16:07;101273.02;;;9.95;66.39
79368;BME280;68834;53.152;17.962;2023-05-17T04:18:36;101273.84;;;9.98;66.08
79368;BME280;68834;53.152;17.962;2023-05-17T04:21:03;101280.81;;;9.98;65.64
79368;BME280;68834;53.152;17.962;2023-05-17T04:23:31;101277.67;;;9.99;65.68
79368;BME280;68834;53.152;17.962;2023-05-17T04:25:59;101281.80;;;10.03;65.38
79368;BME280;68834;53.152;17.962;2023-05-17T04:28:27;101279.65;;;10.08;65.30
79368;BME280;68834;53.152;17.962;2023-05-17T04:30:54;101281.11;;;10.15;65.16
79368;BME280;68834;53.152;17.962;2023-05-17T04:33:22;101275.09;;;10.21;64.96
79368;BME280;68834;53.152;17.962;2023-05-17T04:35:52;101283.73;;;10.28;64.90
79368;BME280;68834;53.152;17.962;2023-05-17T04:38:20;101289.42;;;10.34;64.41
79368;BME280;68834;53.152;17.962;2023-05-17T04:40:47;101295.80;;;10.40;64.26
79368;BME280;68834;53.152;17.962;2023-05-17T04:43:14;101291.13;;;10.48;64.11
79368;BME280;68834;53.152;17.962;2023-05-17T04:45:41;101290.64;;;10.56;63.80
79368;BME280;68834;53.152;17.962;2023-05-17T04:48:08;101293.86;;;10.62;63.93
79368;BME280;68834;53.152;17.962;2023-05-17T04:50:35;101295.89;;;10.66;62.99
79368;BME280;68834;53.152;17.962;2023-05-17T04:53:01;101299.48;;;10.72;62.90
79368;BME280;68834;53.152;17.962;2023-05-17T04:55:29;101300.15;;;10.73;62.66
79368;BME280;68834;53.152;17.962;2023-05-17T04:57:55;101296.83;;;10.74;62.63
79368;BME280;68834;53.152;17.962;2023-05-17T05:00:24;101298.50;;;10.78;62.53
79368;BME280;68834;53.152;17.962;2023-05-17T05:02:57;101299.64;;;10.83;62.90
79368;BME280;68834;53.152;17.962;2023-05-17T05:05:24;101305.46;;;10.90;62.47
79368;BME280;68834;53.152;17.962;2023-05-17T05:07:51;101309.54;;;10.97;62.67
79368;BME280;68834;53.152;17.962;2023-05-17T05:10:18;101311.04;;;11.01;62.41
79368;BME280;68834;53.152;17.962;2023-05-17T05:12:44;101313.69;;;11.00;61.68
79368;BME280;68834;53.152;17.962;2023-05-17T05:15:11;101313.52;;;10.99;61.99
79368;BME280;68834;53.152;17.962;2023-05-17T05:17:38;101313.17;;;10.99;61.69
79368;BME280;68834;53.152;17.962;2023-05-17T05:20:06;101314.08;;;10.98;61.80
79368;BME280;68834;53.152;17.962;2023-05-17T05:22:34;101313.41;;;10.97;61.41
79368;BME280;68834;53.152;17.962;2023-05-17T05:25:01;101312.66;;;10.99;61.56
79368;BME280;68834;53.152;17.962;2023-05-17T05:27:28;101309.88;;;10.98;61.17
79368;BME280;68834;53.152;17.962;2023-05-17T05:29:55;101313.23;;;10.96;61.15
79368;BME280;68834;53.152;17.962;2023-05-17T05:32:23;101313.59;;;10.96;61.08
79368;BME280;68834;53.152;17.962;2023-05-17T05:34:49;101316.13;;;11.00;61.10
79368;BME280;68834;53.152;17.962;2023-05-17T05:37:16;101312.75;;;11.04;60.85
79368;BME280;68834;53.152;17.962;2023-05-17T05:39:45;101311.13;;;11.06;60.92
79368;BME280;68834;53.152;17.962;2023-05-17T05:42:12;101308.29;;;11.08;60.48
79368;BME280;68834;53.152;17.962;2023-05-17T05:44:39;101316.93;;;11.14;60.75
79368;BME280;68834;53.152;17.962;2023-05-17T05:47:05;101317.85;;;11.21;60.12
79368;BME280;68834;53.152;17.962;2023-05-17T05:49:32;101314.77;;;11.27;60.50
79368;BME280;68834;53.152;17.962;2023-05-17T05:51:58;101315.51;;;11.35;60.12
79368;BME280;68834;53.152;17.962;2023-05-17T05:54:27;101324.48;;;11.41;59.78
79368;BME280;68834;53.152;17.962;2023-05-17T05:56:54;101326.41;;;11.41;59.57
79368;BME280;68834;53.152;17.962;2023-05-17T05:59:20;101331.56;;;11.46;59.89
79368;BME280;68834;53.152;17.962;2023-05-17T06:01:47;101329.02;;;11.60;59.82
79368;BME280;68834;53.152;17.962;2023-05-17T06:04:13;101332.59;;;11.74;59.67
79368;BME280;68834;53.152;17.962;2023-05-17T06:06:40;101335.79;;;11.91;59.48
79368;BME280;68834;53.152;17.962;2023-05-17T06:09:07;101335.92;;;12.00;59.27
79368;BME280;68834;53.152;17.962;2023-05-17T06:11:37;101337.79;;;12.11;58.77
79368;BME280;68834;53.152;17.962;2023-05-17T06:14:04;101338.39;;;12.24;58.75
79368;BME280;68834;53.152;17.962;2023-05-17T06:16:31;101338.68;;;12.42;58.86
79368;BME280;68834;53.152;17.962;2023-05-17T06:18:57;101340.16;;;12.61;58.69
79368;BME280;68834;53.152;17.962;2023-05-17T06:21:24;101342.46;;;12.82;58.28
79368;BME280;68834;53.152;17.962;2023-05-17T06:23:51;101349.01;;;12.94;57.65
79368;BME280;68834;53.152;17.962;2023-05-17T06:26:18;101347.58;;;13.09;57.37
79368;BME280;68834;53.152;17.962;2023-05-17T06:28:44;101347.52;;;13.25;57.16
79368;BME280;68834;53.152;17.962;2023-05-17T06:31:11;101346.69;;;13.44;56.99
79368;BME280;68834;53.152;17.962;2023-05-17T06:33:38;101347.84;;;13.65;56.48
79368;BME280;68834;53.152;17.962;2023-05-17T06:36:05;101348.30;;;13.87;55.60
79368;BME280;68834;53.152;17.962;2023-05-17T06:38:32;101344.31;;;14.03;54.88
79368;BME280;68834;53.152;17.962;2023-05-17T06:40:58;101344.39;;;14.18;55.01
79368;BME280;68834;53.152;17.962;2023-05-17T06:43:25;101342.88;;;14.44;55.09
79368;BME280;68834;53.152;17.962;2023-05-17T06:45:52;101342.08;;;14.75;54.69
79368;BME280;68834;53.152;17.962;2023-05-17T06:48:18;101342.29;;;15.01;53.86
79368;BME280;68834;53.152;17.962;2023-05-17T06:50:45;101342.76;;;15.23;53.09
79368;BME280;68834;53.152;17.962;2023-05-17T06:53:12;101343.89;;;15.46;53.22
79368;BME280;68834;53.152;17.962;2023-05-17T06:55:39;101338.15;;;15.69;52.60
79368;BME280;68834;53.152;17.962;2023-05-17T06:58:06;101336.75;;;15.79;51.64
79368;BME280;68834;53.152;17.962;2023-05-17T07:00:32;101343.84;;;15.91;51.60
79368;BME280;68834;53.152;17.962;2023-05-17T07:02:59;101340.63;;;15.93;50.37
79368;BME280;68834;53.152;17.962;2023-05-17T07:05:26;101343.20;;;15.94;50.45
79368;BME280;68834;53.152;17.962;2023-05-17T07:07:54;101345.10;;;15.91;49.58
79368;BME280;68834;53.152;17.962;2023-05-17T07:10:21;101351.09;;;15.86;49.94
79368;BME280;68834;53.152;17.962;2023-05-17T07:12:47;101358.29;;;15.97;50.48
79368;BME280;68834;53.152;17.962;2023-05-17T07:15:14;101365.70;;;16.19;50.40
79368;BME280;68834;53.152;17.962;2023-05-17T07:17:41;101369.30;;;16.40;49.65
79368;BME280;68834;53.152;17.962;2023-05-17T07:20:08;101373.20;;;16.58;49.02
79368;BME280;68834;53.152;17.962;2023-05-17T07:22:36;101369.89;;;16.75;48.86
79368;BME280;68834;53.152;17.962;2023-05-17T07:25:04;101371.39;;;16.95;48.33
79368;BME280;68834;53.152;17.962;2023-05-17T07:27:30;101371.88;;;17.08;47.60
79368;BME280;68834;53.152;17.962;2023-05-17T07:29:57;101371.98;;;17.27;47.51
79368;BME280;68834;53.152;17.962;2023-05-17T07:32:24;101373.17;;;17.52;47.19
79368;BME280;68834;53.152;17.962;2023-05-17T07:34:50;101379.52;;;17.65;46.08
79368;BME280;68834;53.152;17.962;2023-05-17T07:37:17;101379.27;;;17.70;45.93
79368;BME280;68834;53.152;17.962;2023-05-17T07:39:44;101387.94;;;17.82;45.80
79368;BME280;68834;53.152;17.962;2023-05-17T07:42:10;101384.48;;;17.93;44.88
79368;BME280;68834;53.152;17.962;2023-05-17T07:44:37;101380.79;;;18.08;44.87
79368;BME280;68834;53.152;17.962;2023-05-17T07:47:04;101382.82;;;18.21;44.91
79368;BME280;68834;53.152;17.962;2023-05-17T07:49:31;101381.00;;;18.41;44.49
79368;BME280;68834;53.152;17.962;2023-05-17T07:51:57;101378.05;;;18.44;44.09
79368;BME280;68834;53.152;17.962;2023-05-17T07:54:25;101381.42;;;18.51;43.18
79368;BME280;68834;53.152;17.962;2023-05-17T07:56:55;101381.89;;;18.55;43.38
79368;BME280;68834;53.152;17.962;2023-05-17T07:59:22;101384.41;;;18.84;42.46
79368;BME280;68834;53.152;17.962;2023-05-17T08:01:49;101386.14;;;19.06;42.53
79368;BME280;68834;53.152;17.962;2023-05-17T08:04:17;101388.80;;;19.21;42.19
79368;BME280;68834;53.152;17.962;2023-05-17T08:06:44;101391.61;;;19.46;41.76
79368;BME280;68834;53.152;17.962;2023-05-17T08:09:12;101382.11;;;19.68;41.16
79368;BME280;68834;53.152;17.962;2023-05-17T08:11:39;101385.69;;;19.74;40.49
79368;BME280;68834;53.152;17.962;2023-05-17T08:14:15;101388.36;;;19.84;39.65
79368;BME280;68834;53.152;17.962;2023-05-17T08:16:45;101390.89;;;20.03;39.55
79368;BME280;68834;53.152;17.962;2023-05-17T08:19:13;101384.57;;;20.21;39.21
79368;BME280;68834;53.152;17.962;2023-05-17T08:21:40;101384.28;;;20.20;39.45
79368;BME280;68834;53.152;17.962;2023-05-17T08:24:08;101387.63;;;20.20;39.37
79368;BME280;68834;53.152;17.962;2023-05-17T08:26:35;101392.52;;;20.35;39.29
79368;BME280;68834;53.152;17.962;2023-05-17T08:29:02;101397.73;;;20.69;39.08
79368;BME280;68834;53.152;17.962;2023-05-17T08:31:30;101397.48;;;20.86;38.51
79368;BME280;68834;53.152;17.962;2023-05-17T08:33:57;101397.33;;;20.80;38.33
79368;BME280;68834;53.152;17.962;2023-05-17T08:36:24;101401.45;;;20.63;38.04
79368;BME280;68834;53.152;17.962;2023-05-17T08:38:51;101405.95;;;20.39;37.98
79368;BME280;68834;53.152;17.962;2023-05-17T08:41:18;101401.81;;;20.08;37.96
79368;BME280;68834;53.152;17.962;2023-05-17T08:43:47;101399.77;;;19.76;37.90
79368;BME280;68834;53.152;17.962;2023-05-17T08:46:15;101403.37;;;19.62;38.40
79368;BME280;68834;53.152;17.962;2023-05-17T08:48:45;101403.64;;;19.49;38.40
79368;BME280;68834;53.152;17.962;2023-05-17T08:51:13;101398.30;;;19.36;38.03
79368;BME280;68834;53.152;17.962;2023-05-17T08:53:40;101398.17;;;19.25;37.94
79368;BME280;68834;53.152;17.962;2023-05-17T08:56:10;101396.87;;;19.09;38.43
79368;BME280;68834;53.152;17.962;2023-05-17T08:58:40;101404.38;;;19.03;38.19
79368;BME280;68834;53.152;17.962;2023-05-17T09:01:08;101403.35;;;19.07;38.09
79368;BME280;68834;53.152;17.962;2023-05-17T09:03:38;101406.16;;;19.10;38.63
79368;BME280;68834;53.152;17.962;2023-05-17T09:06:06;101409.56;;;19.31;38.87
79368;BME280;68834;53.152;17.962;2023-05-17T09:08:36;101406.65;;;19.56;38.64
79368;BME280;68834;53.152;17.962;2023-05-17T09:11:03;101414.85;;;19.80;37.92
79368;BME280;68834;53.152;17.962;2023-05-17T09:13:30;101409.13;;;19.74;37.85
79368;BME280;68834;53.152;17.962;2023-05-17T09:15:57;101409.14;;;19.77;37.89
79368;BME280;68834;53.152;17.962;2023-05-17T09:18:31;101413.70;;;20.02;38.21
79368;BME280;68834;53.152;17.962;2023-05-17T09:21:01;101413.65;;;20.29;37.97
79368;BME280;68834;53.152;17.962;2023-05-17T09:23:31;101410.49;;;20.24;37.76
79368;BME280;68834;53.152;17.962;2023-05-17T09:26:03;101409.77;;;20.08;37.95
79368;BME280;68834;53.152;17.962;2023-05-17T09:28:37;101412.38;;;19.93;38.03
79368;BME280;68834;53.152;17.962;2023-05-17T09:31:08;101413.42;;;19.90;38.06
79368;BME280;68834;53.152;17.962;2023-05-17T09:33:43;101416.03;;;20.04;38.00
79368;BME280;68834;53.152;17.962;2023-05-17T09:36:18;101418.77;;;20.23;38.08
79368;BME280;68834;53.152;17.962;2023-05-17T09:38:56;101418.06;;;20.42;37.56
79368;BME280;68834;53.152;17.962;2023-05-17T09:41:26;101419.05;;;20.43;37.12
79368;BME280;68834;53.152;17.962;2023-05-17T09:43:57;101425.56;;;20.22;37.30
79368;BME280;68834;53.152;17.962;2023-05-17T09:46:23;101430.65;;;19.93;37.15
79368;BME280;68834;53.152;17.962;2023-05-17T09:48:53;101435.52;;;19.72;37.04
79368;BME280;68834;53.152;17.962;2023-05-17T09:51:37;101432.33;;;19.68;37.09
79368;BME280;68834;53.152;17.962;2023-05-17T09:54:08;101423.77;;;19.82;37.06
79368;BME280;68834;53.152;17.962;2023-05-17T09:56:38;101419.02;;;20.15;36.75
79368;BME280;68834;53.152;17.962;2023-05-17T09:59:12;101423.75;;;20.45;36.32
79368;BME280;68834;53.152;17.962;2023-05-17T10:01:41;101422.45;;;20.53;35.63
79368;BME280;68834;53.152;17.962;2023-05-17T10:04:09;101424.11;;;20.45;35.29
79368;BME280;68834;53.152;17.962;2023-05-17T10:06:37;101422.70;;;20.25;35.09
79368;BME280;68834;53.152;17.962;2023-05-17T10:09:05;101432.02;;;20.07;35.39
79368;BME280;68834;53.152;17.962;2023-05-17T10:11:35;101433.84;;;19.96;35.81
79368;BME280;68834;53.152;17.962;2023-05-17T10:16:40;101449.30;;;19.79;35.63
79368;BME280;68834;53.152;17.962;2023-05-17T10:19:10;101444.83;;;19.66;35.69
79368;BME280;68834;53.152;17.962;2023-05-17T10:21:37;101446.66;;;19.51;36.34
79368;BME280;68834;53.152;17.962;2023-05-17T10:24:06;101449.41;;;19.49;36.17
79368;BME280;68834;53.152;17.962;2023-05-17T10:26:34;101441.80;;;19.66;35.97
79368;BME280;68834;53.152;17.962;2023-05-17T10:29:02;101442.80;;;19.78;35.75
79368;BME280;68834;53.152;17.962;2023-05-17T10:31:31;101443.36;;;19.94;36.03
79368;BME280;68834;53.152;17.962;2023-05-17T10:34:04;101446.27;;;20.10;34.55
79368;BME280;68834;53.152;17.962;2023-05-17T10:36:32;101445.59;;;20.22;34.39
79368;BME280;68834;53.152;17.962;2023-05-17T10:38:59;101440.14;;;20.24;34.10
79368;BME280;68834;53.152;17.962;2023-05-17T10:41:32;101438.99;;;20.13;34.19
79368;BME280;68834;53.152;17.962;2023-05-17T10:44:01;101436.58;;;19.95;34.36
79368;BME280;68834;53.152;17.962;2023-05-17T10:46:29;101436.82;;;19.90;34.90
79368;BME280;68834;53.152;17.962;2023-05-17T10:48:57;101435.59;;;20.07;34.80
79368;BME280;68834;53.152;17.962;2023-05-17T10:51:30;101441.16;;;20.38;34.57
79368;BME280;68834;53.152;17.962;2023-05-17T10:54:11;101430.58;;;20.79;33.93
79368;BME280;68834;53.152;17.962;2023-05-17T10:56:48;101428.92;;;21.23;33.69
79368;BME280;68834;53.152;17.962;2023-05-17T10:59:22;101430.74;;;21.76;33.11
79368;BME280;68834;53.152;17.962;2023-05-17T11:02:02;101437.48;;;22.14;32.68
79368;BME280;68834;53.152;17.962;2023-05-17T11:04:36;101433.86;;;22.44;31.69
79368;BME280;68834;53.152;17.962;2023-05-17T11:10:01;101435.77;;;22.53;30.93
79368;BME280;68834;53.152;17.962;2023-05-17T11:15:15;101443.58;;;22.42;31.29
79368;BME280;68834;53.152;17.962;2023-05-17T11:23:03;101445.61;;;23.36;29.77
79368;BME280;68834;53.152;17.962;2023-05-17T11:25:32;101441.31;;;24.09;28.77
79368;BME280;68834;53.152;17.962;2023-05-17T11:28:12;101439.48;;;24.56;28.29
79368;BME280;68834;53.152;17.962;2023-05-17T11:30:43;101433.92;;;24.58;27.72
79368;BME280;68834;53.152;17.962;2023-05-17T11:33:16;101434.63;;;24.90;27.52
79368;BME280;68834;53.152;17.962;2023-05-17T11:35:43;101442.74;;;25.16;26.73
79368;BME280;68834;53.152;17.962;2023-05-17T11:38:16;101437.80;;;25.15;26.79
79368;BME280;68834;53.152;17.962;2023-05-17T11:40:47;101439.41;;;24.76;26.95
79368;BME280;68834;53.152;17.962;2023-05-17T11:43:18;101444.88;;;25.16;26.66
79368;BME280;68834;53.152;17.962;2023-05-17T11:45:54;101445.38;;;25.87;26.07
79368;BME280;68834;53.152;17.962;2023-05-17T11:48:24;101445.30;;;26.51;25.05
79368;BME280;68834;53.152;17.962;2023-05-17T11:50:53;101446.94;;;27.07;23.63
79368;BME280;68834;53.152;17.962;2023-05-17T11:53:20;101439.06;;;27.29;23.33
79368;BME280;68834;53.152;17.962;2023-05-17T11:55:49;101435.64;;;27.52;23.75
79368;BME280;68834;53.152;17.962;2023-05-17T11:58:24;101439.02;;;27.63;23.51
79368;BME280;68834;53.152;17.962;2023-05-17T12:00:56;101447.80;;;27.29;22.80
79368;BME280;68834;53.152;17.962;2023-05-17T12:03:26;101457.23;;;26.65;23.57
79368;BME280;68834;53.152;17.962;2023-05-17T12:06:10;101460.59;;;26.62;23.77
79368;BME280;68834;53.152;17.962;2023-05-17T12:08:39;101460.35;;;26.89;23.64
79368;BME280;68834;53.152;17.962;2023-05-17T12:11:11;101465.52;;;27.17;23.60
79368;BME280;68834;53.152;17.962;2023-05-17T12:13:39;101465.40;;;27.31;23.43
79368;BME280;68834;53.152;17.962;2023-05-17T12:16:11;101468.62;;;27.12;23.31
79368;BME280;68834;53.152;17.962;2023-05-17T12:18:45;101471.20;;;27.00;23.30
79368;BME280;68834;53.152;17.962;2023-05-17T12:21:13;101470.48;;;26.72;23.41
79368;BME280;68834;53.152;17.962;2023-05-17T12:23:42;101468.23;;;26.31;23.16
79368;BME280;68834;53.152;17.962;2023-05-17T12:26:14;101472.13;;;25.84;23.68
79368;BME280;68834;53.152;17.962;2023-05-17T12:28:54;101476.70;;;25.52;23.68
79368;BME280;68834;53.152;17.962;2023-05-17T12:31:36;101482.09;;;25.30;23.84
79368;BME280;68834;53.152;17.962;2023-05-17T12:34:05;101489.52;;;24.90;23.37
79368;BME280;68834;53.152;17.962;2023-05-17T12:36:32;101486.83;;;24.54;24.24
79368;BME280;68834;53.152;17.962;2023-05-17T12:39:00;101487.23;;;24.40;24.69
79368;BME280;68834;53.152;17.962;2023-05-17T12:41:29;101489.90;;;24.25;25.16
79368;BME280;68834;53.152;17.962;2023-05-17T12:43:56;101488.60;;;24.05;25.39
79368;BME280;68834;53.152;17.962;2023-05-17T12:46:23;101490.48;;;23.88;25.55
79368;BME280;68834;53.152;17.962;2023-05-17T12:48:52;101489.84;;;23.72;25.80
79368;BME280;68834;53.152;17.962;2023-05-17T12:51:20;101493.04;;;23.66;25.93
79368;BME280;68834;53.152;17.962;2023-05-17T12:53:51;101495.52;;;23.64;25.84
79368;BME280;68834;53.152;17.962;2023-05-17T12:56:21;101495.23;;;23.58;25.64
79368;BME280;68834;53.152;17.962;2023-05-17T13:01:38;101496.73;;;23.38;24.88
79368;BME280;68834;53.152;17.962;2023-05-17T13:04:05;101497.72;;;23.23;25.15
79368;BME280;68834;53.152;17.962;2023-05-17T13:06:51;101498.73;;;23.13;25.44
79368;BME280;68834;53.152;17.962;2023-05-17T13:09:22;101497.35;;;23.07;25.29
79368;BME280;68834;53.152;17.962;2023-05-17T13:11:50;101495.59;;;23.01;25.07
79368;BME280;68834;53.152;17.962;2023-05-17T13:17:06;101498.41;;;22.66;25.30
79368;BME280;68834;53.152;17.962;2023-05-17T13:19:33;101498.60;;;22.51;25.31
79368;BME280;68834;53.152;17.962;2023-05-17T13:22:04;101493.66;;;22.22;24.97
79368;BME280;68834;53.152;17.962;2023-05-17T13:24:37;101492.78;;;22.04;25.60
79368;BME280;68834;53.152;17.962;2023-05-17T13:27:05;101494.89;;;22.01;25.67